Startpagina
METAR-TAF:

METAR-TAF

Vliegvelden :

Meeker Airport

Meeker, Colorado, Verenigde Staten

breedte: 40-02-32N, lengte: 107-53-23W, hoogte: 1948 m

Actueel weer

Dit bericht is 34 minuten geleden gemaakt, om 10:53 UTC
Weinig wind
Temperatuur 13°C
Vochtigheid 38%
Druk 1025 hPa
Zicht: 16.1 km
Onbewolkt

METAR: KEEO 191053Z AUTO 00000KT 10SM CLR 13/M01 A3026 RMK AO2 SLP145 T01331006

Tijdstip: 05:27 (11:27 UTC)


TAF: ontbreekt

Waarnemingen en weersverwachtingen van meer dan 4000 vliegvelden (METAR en TAF).

De beschikbare stations zijn de gele en rode punten op de kaart.

Ga met uw muis naar het station om de naam te zien.

Klik dan om waarnemingen en weersverwachtingen te zien.

kaart wijzigen: klik op de groene knoppen met een zwart kruis om in te zoomen, op de groene knop met een streepje om uit te zoomen of op de groene pijlen voor aangrenzende kaarten.


METAR-TAF: